sensor_id;sensor_type;location;lat;lon;timestamp;P1;durP1;ratioP1;P2;durP2;ratioP2
23517;SDS011;11935;50.878;4.392;2022-12-10T00:01:43;64.85;;;28.92;;
23517;SDS011;11935;50.878;4.392;2022-12-10T00:04:10;63.22;;;27.95;;
23517;SDS011;11935;50.878;4.392;2022-12-10T00:06:36;64.25;;;28.50;;
23517;SDS011;11935;50.878;4.392;2022-12-10T00:09:04;62.53;;;29.05;;
23517;SDS011;11935;50.878;4.392;2022-12-10T00:11:30;57.93;;;27.40;;
23517;SDS011;11935;50.878;4.392;2022-12-10T00:13:56;59.60;;;27.77;;
23517;SDS011;11935;50.878;4.392;2022-12-10T00:16:24;59.25;;;27.65;;
23517;SDS011;11935;50.878;4.392;2022-12-10T00:18:51;61.80;;;27.67;;
23517;SDS011;11935;50.878;4.392;2022-12-10T00:21:19;61.28;;;27.48;;
23517;SDS011;11935;50.878;4.392;2022-12-10T00:23:45;61.72;;;27.95;;
23517;SDS011;11935;50.878;4.392;2022-12-10T00:26:13;56.65;;;25.92;;
23517;SDS011;11935;50.878;4.392;2022-12-10T00:28:39;60.43;;;27.90;;
23517;SDS011;11935;50.878;4.392;2022-12-10T00:31:07;62.85;;;29.05;;
23517;SDS011;11935;50.878;4.392;2022-12-10T00:33:34;61.10;;;28.50;;
23517;SDS011;11935;50.878;4.392;2022-12-10T00:36:07;62.90;;;29.35;;
23517;SDS011;11935;50.878;4.392;2022-12-10T00:38:34;63.15;;;27.30;;
23517;SDS011;11935;50.878;4.392;2022-12-10T00:41:00;61.40;;;26.95;;
23517;SDS011;11935;50.878;4.392;2022-12-10T00:43:26;64.65;;;26.98;;
23517;SDS011;11935;50.878;4.392;2022-12-10T00:45:52;60.35;;;25.75;;
23517;SDS011;11935;50.878;4.392;2022-12-10T00:48:19;63.30;;;27.05;;
23517;SDS011;11935;50.878;4.392;2022-12-10T00:50:54;53.92;;;24.75;;
23517;SDS011;11935;50.878;4.392;2022-12-10T00:53:21;56.30;;;25.80;;
23517;SDS011;11935;50.878;4.392;2022-12-10T00:55:47;60.17;;;26.58;;
23517;SDS011;11935;50.878;4.392;2022-12-10T00:58:13;56.03;;;24.75;;
23517;SDS011;11935;50.878;4.392;2022-12-10T01:00:39;65.72;;;26.60;;
23517;SDS011;11935;50.878;4.392;2022-12-10T01:03:05;54.95;;;24.38;;
23517;SDS011;11935;50.878;4.392;2022-12-10T01:05:31;53.20;;;25.40;;
23517;SDS011;11935;50.878;4.392;2022-12-10T01:07:57;50.17;;;24.10;;
23517;SDS011;11935;50.878;4.392;2022-12-10T01:10:23;55.30;;;24.50;;
23517;SDS011;11935;50.878;4.392;2022-12-10T01:12:49;54.20;;;23.98;;
23517;SDS011;11935;50.878;4.392;2022-12-10T01:15:15;53.22;;;24.35;;
23517;SDS011;11935;50.878;4.392;2022-12-10T01:17:41;51.33;;;23.90;;
23517;SDS011;11935;50.878;4.392;2022-12-10T01:20:07;56.78;;;25.88;;
23517;SDS011;11935;50.878;4.392;2022-12-10T01:22:33;56.58;;;24.33;;
23517;SDS011;11935;50.878;4.392;2022-12-10T01:24:59;59.72;;;24.92;;
23517;SDS011;11935;50.878;4.392;2022-12-10T01:27:26;53.75;;;25.13;;
23517;SDS011;11935;50.878;4.392;2022-12-10T01:29:52;53.28;;;24.48;;
23517;SDS011;11935;50.878;4.392;2022-12-10T01:32:18;53.00;;;24.50;;
23517;SDS011;11935;50.878;4.392;2022-12-10T01:34:44;57.17;;;24.95;;
23517;SDS011;11935;50.878;4.392;2022-12-10T01:37:10;56.17;;;25.05;;
23517;SDS011;11935;50.878;4.392;2022-12-10T01:39:36;55.72;;;23.13;;
23517;SDS011;11935;50.878;4.392;2022-12-10T01:42:03;54.70;;;26.27;;
23517;SDS011;11935;50.878;4.392;2022-12-10T01:46:56;57.65;;;26.27;;
23517;SDS011;11935;50.878;4.392;2022-12-10T01:49:27;56.33;;;25.77;;
23517;SDS011;11935;50.878;4.392;2022-12-10T01:51:57;53.05;;;24.67;;
23517;SDS011;11935;50.878;4.392;2022-12-10T01:54:24;55.60;;;25.05;;
23517;SDS011;11935;50.878;4.392;2022-12-10T01:56:52;56.22;;;26.30;;
23517;SDS011;11935;50.878;4.392;2022-12-10T01:59:20;56.45;;;26.85;;
23517;SDS011;11935;50.878;4.392;2022-12-10T02:06:58;60.75;;;28.13;;
23517;SDS011;11935;50.878;4.392;2022-12-10T02:09:35;59.45;;;26.88;;
23517;SDS011;11935;50.878;4.392;2022-12-10T02:12:37;59.20;;;28.13;;
23517;SDS011;11935;50.878;4.392;2022-12-10T02:15:00;57.90;;;27.27;;
23517;SDS011;11935;50.878;4.392;2022-12-10T02:17:50;58.58;;;27.67;;
23517;SDS011;11935;50.878;4.392;2022-12-10T02:20:16;62.90;;;28.02;;
23517;SDS011;11935;50.878;4.392;2022-12-10T02:22:47;66.70;;;29.65;;
23517;SDS011;11935;50.878;4.392;2022-12-10T02:25:15;55.90;;;25.90;;
23517;SDS011;11935;50.878;4.392;2022-12-10T02:27:52;67.55;;;30.50;;
23517;SDS011;11935;50.878;4.392;2022-12-10T02:30:20;61.35;;;27.63;;
23517;SDS011;11935;50.878;4.392;2022-12-10T02:32:46;64.38;;;29.10;;
23517;SDS011;11935;50.878;4.392;2022-12-10T02:35:18;68.47;;;31.65;;
23517;SDS011;11935;50.878;4.392;2022-12-10T02:37:50;59.22;;;28.85;;
23517;SDS011;11935;50.878;4.392;2022-12-10T02:40:18;68.07;;;31.92;;
23517;SDS011;11935;50.878;4.392;2022-12-10T02:42:45;71.05;;;32.50;;
23517;SDS011;11935;50.878;4.392;2022-12-10T02:45:13;70.80;;;30.02;;
23517;SDS011;11935;50.878;4.392;2022-12-10T02:47:39;60.17;;;30.27;;
23517;SDS011;11935;50.878;4.392;2022-12-10T02:50:06;63.95;;;30.55;;
23517;SDS011;11935;50.878;4.392;2022-12-10T02:52:33;67.22;;;32.28;;
23517;SDS011;11935;50.878;4.392;2022-12-10T02:54:59;71.75;;;32.75;;
23517;SDS011;11935;50.878;4.392;2022-12-10T02:57:34;66.72;;;31.40;;
23517;SDS011;11935;50.878;4.392;2022-12-10T03:02:38;62.08;;;30.75;;
23517;SDS011;11935;50.878;4.392;2022-12-10T03:07:37;65.90;;;32.38;;
23517;SDS011;11935;50.878;4.392;2022-12-10T03:10:12;68.88;;;31.40;;
23517;SDS011;11935;50.878;4.392;2022-12-10T03:12:44;70.70;;;33.75;;
23517;SDS011;11935;50.878;4.392;2022-12-10T03:15:11;67.82;;;33.88;;
23517;SDS011;11935;50.878;4.392;2022-12-10T03:17:39;75.93;;;36.63;;
23517;SDS011;11935;50.878;4.392;2022-12-10T03:20:08;74.20;;;35.30;;
23517;SDS011;11935;50.878;4.392;2022-12-10T03:22:37;80.68;;;35.58;;
23517;SDS011;11935;50.878;4.392;2022-12-10T03:25:04;74.32;;;33.97;;
23517;SDS011;11935;50.878;4.392;2022-12-10T03:27:31;78.25;;;34.70;;
23517;SDS011;11935;50.878;4.392;2022-12-10T03:29:57;82.20;;;34.72;;
23517;SDS011;11935;50.878;4.392;2022-12-10T03:32:25;81.57;;;36.58;;
23517;SDS011;11935;50.878;4.392;2022-12-10T03:34:51;83.57;;;35.25;;
23517;SDS011;11935;50.878;4.392;2022-12-10T03:37:19;88.45;;;38.00;;
23517;SDS011;11935;50.878;4.392;2022-12-10T03:39:46;73.65;;;32.08;;
23517;SDS011;11935;50.878;4.392;2022-12-10T03:42:12;80.85;;;34.25;;
23517;SDS011;11935;50.878;4.392;2022-12-10T03:44:38;83.65;;;35.28;;
23517;SDS011;11935;50.878;4.392;2022-12-10T03:47:08;81.30;;;34.67;;
23517;SDS011;11935;50.878;4.392;2022-12-10T03:52:02;85.38;;;35.20;;
23517;SDS011;11935;50.878;4.392;2022-12-10T03:54:28;85.05;;;37.13;;
23517;SDS011;11935;50.878;4.392;2022-12-10T03:56:54;88.45;;;38.50;;
23517;SDS011;11935;50.878;4.392;2022-12-10T03:59:20;88.40;;;36.20;;
23517;SDS011;11935;50.878;4.392;2022-12-10T04:01:46;89.78;;;38.55;;
23517;SDS011;11935;50.878;4.392;2022-12-10T04:04:12;85.03;;;35.28;;
23517;SDS011;11935;50.878;4.392;2022-12-10T04:06:38;90.18;;;36.92;;
23517;SDS011;11935;50.878;4.392;2022-12-10T04:09:05;94.07;;;39.45;;
23517;SDS011;11935;50.878;4.392;2022-12-10T04:11:31;95.22;;;38.20;;
23517;SDS011;11935;50.878;4.392;2022-12-10T04:13:57;95.50;;;36.63;;
23517;SDS011;11935;50.878;4.392;2022-12-10T04:16:42;90.75;;;36.92;;
23517;SDS011;11935;50.878;4.392;2022-12-10T04:19:09;90.55;;;39.10;;
23517;SDS011;11935;50.878;4.392;2022-12-10T04:21:37;102.90;;;42.33;;
23517;SDS011;11935;50.878;4.392;2022-12-10T04:24:23;96.07;;;40.83;;
23517;SDS011;11935;50.878;4.392;2022-12-10T04:27:26;100.10;;;41.88;;
23517;SDS011;11935;50.878;4.392;2022-12-10T04:29:53;100.82;;;39.97;;
23517;SDS011;11935;50.878;4.392;2022-12-10T04:32:19;96.65;;;40.13;;
23517;SDS011;11935;50.878;4.392;2022-12-10T04:34:46;101.18;;;41.35;;
23517;SDS011;11935;50.878;4.392;2022-12-10T04:37:12;98.15;;;39.30;;
23517;SDS011;11935;50.878;4.392;2022-12-10T04:39:38;102.00;;;39.58;;
23517;SDS011;11935;50.878;4.392;2022-12-10T04:42:05;98.28;;;39.80;;
23517;SDS011;11935;50.878;4.392;2022-12-10T04:44:31;93.60;;;35.17;;
23517;SDS011;11935;50.878;4.392;2022-12-10T04:46:57;94.63;;;38.28;;
23517;SDS011;11935;50.878;4.392;2022-12-10T04:49:23;87.68;;;34.88;;
23517;SDS011;11935;50.878;4.392;2022-12-10T04:51:49;91.63;;;37.25;;
23517;SDS011;11935;50.878;4.392;2022-12-10T04:54:15;90.00;;;36.28;;
23517;SDS011;11935;50.878;4.392;2022-12-10T04:56:42;92.47;;;36.60;;
23517;SDS011;11935;50.878;4.392;2022-12-10T04:59:08;94.55;;;35.92;;
23517;SDS011;11935;50.878;4.392;2022-12-10T05:01:34;94.95;;;37.70;;
23517;SDS011;11935;50.878;4.392;2022-12-10T05:04:01;86.25;;;30.95;;
23517;SDS011;11935;50.878;4.392;2022-12-10T05:06:28;102.05;;;35.50;;
23517;SDS011;11935;50.878;4.392;2022-12-10T05:08:54;94.57;;;38.00;;
23517;SDS011;11935;50.878;4.392;2022-12-10T05:11:21;102.43;;;39.42;;
23517;SDS011;11935;50.878;4.392;2022-12-10T05:13:47;105.95;;;39.95;;
23517;SDS011;11935;50.878;4.392;2022-12-10T05:16:15;99.65;;;39.03;;
23517;SDS011;11935;50.878;4.392;2022-12-10T05:18:42;98.03;;;36.55;;
23517;SDS011;11935;50.878;4.392;2022-12-10T05:21:10;101.20;;;38.13;;
23517;SDS011;11935;50.878;4.392;2022-12-10T05:23:38;94.93;;;37.08;;
23517;SDS011;11935;50.878;4.392;2022-12-10T05:28:37;99.78;;;37.85;;
23517;SDS011;11935;50.878;4.392;2022-12-10T05:31:03;89.38;;;36.38;;
23517;SDS011;11935;50.878;4.392;2022-12-10T05:33:29;88.18;;;35.20;;
23517;SDS011;11935;50.878;4.392;2022-12-10T05:36:00;94.40;;;36.25;;
23517;SDS011;11935;50.878;4.392;2022-12-10T05:38:26;96.93;;;36.60;;
23517;SDS011;11935;50.878;4.392;2022-12-10T05:40:53;95.70;;;36.85;;
23517;SDS011;11935;50.878;4.392;2022-12-10T05:43:19;101.18;;;38.97;;
23517;SDS011;11935;50.878;4.392;2022-12-10T05:45:45;94.53;;;34.88;;
23517;SDS011;11935;50.878;4.392;2022-12-10T05:48:12;91.85;;;33.95;;
23517;SDS011;11935;50.878;4.392;2022-12-10T05:50:38;87.53;;;32.53;;
23517;SDS011;11935;50.878;4.392;2022-12-10T05:53:05;82.72;;;32.28;;
23517;SDS011;11935;50.878;4.392;2022-12-10T05:55:31;85.75;;;31.60;;
23517;SDS011;11935;50.878;4.392;2022-12-10T05:57:58;86.72;;;32.50;;
23517;SDS011;11935;50.878;4.392;2022-12-10T06:00:24;74.13;;;29.75;;
23517;SDS011;11935;50.878;4.392;2022-12-10T06:02:51;83.60;;;31.35;;
23517;SDS011;11935;50.878;4.392;2022-12-10T06:05:17;79.60;;;30.02;;
23517;SDS011;11935;50.878;4.392;2022-12-10T06:07:43;91.10;;;32.55;;
23517;SDS011;11935;50.878;4.392;2022-12-10T06:10:09;92.68;;;32.85;;
23517;SDS011;11935;50.878;4.392;2022-12-10T06:12:35;80.70;;;29.83;;
23517;SDS011;11935;50.878;4.392;2022-12-10T06:15:02;84.72;;;31.90;;
23517;SDS011;11935;50.878;4.392;2022-12-10T06:17:28;79.63;;;31.33;;
23517;SDS011;11935;50.878;4.392;2022-12-10T06:19:54;94.45;;;34.25;;
23517;SDS011;11935;50.878;4.392;2022-12-10T06:22:20;84.95;;;30.98;;
23517;SDS011;11935;50.878;4.392;2022-12-10T06:24:46;87.22;;;31.85;;
23517;SDS011;11935;50.878;4.392;2022-12-10T06:27:12;88.95;;;31.13;;
23517;SDS011;11935;50.878;4.392;2022-12-10T06:29:38;90.35;;;35.33;;
23517;SDS011;11935;50.878;4.392;2022-12-10T06:32:04;92.95;;;32.67;;
23517;SDS011;11935;50.878;4.392;2022-12-10T06:34:30;86.75;;;32.05;;
23517;SDS011;11935;50.878;4.392;2022-12-10T06:36:56;90.63;;;32.63;;
23517;SDS011;11935;50.878;4.392;2022-12-10T06:39:22;92.03;;;32.47;;
23517;SDS011;11935;50.878;4.392;2022-12-10T06:41:48;91.80;;;30.98;;
23517;SDS011;11935;50.878;4.392;2022-12-10T06:44:15;87.38;;;31.45;;
23517;SDS011;11935;50.878;4.392;2022-12-10T06:46:41;87.40;;;30.50;;
23517;SDS011;11935;50.878;4.392;2022-12-10T06:49:07;90.25;;;30.17;;
23517;SDS011;11935;50.878;4.392;2022-12-10T06:51:33;79.13;;;29.50;;
23517;SDS011;11935;50.878;4.392;2022-12-10T06:53:59;89.45;;;27.98;;
23517;SDS011;11935;50.878;4.392;2022-12-10T06:56:25;88.28;;;29.95;;
23517;SDS011;11935;50.878;4.392;2022-12-10T06:58:52;91.55;;;31.05;;
23517;SDS011;11935;50.878;4.392;2022-12-10T07:01:19;88.95;;;29.88;;
23517;SDS011;11935;50.878;4.392;2022-12-10T07:03:49;89.28;;;31.80;;
23517;SDS011;11935;50.878;4.392;2022-12-10T07:06:15;90.10;;;29.98;;
23517;SDS011;11935;50.878;4.392;2022-12-10T07:08:42;98.82;;;31.88;;
23517;SDS011;11935;50.878;4.392;2022-12-10T07:11:09;103.80;;;30.63;;
23517;SDS011;11935;50.878;4.392;2022-12-10T07:13:35;95.07;;;33.10;;
23517;SDS011;11935;50.878;4.392;2022-12-10T07:16:01;88.25;;;30.35;;
23517;SDS011;11935;50.878;4.392;2022-12-10T07:18:27;100.55;;;33.10;;
23517;SDS011;11935;50.878;4.392;2022-12-10T07:20:54;112.47;;;32.95;;
23517;SDS011;11935;50.878;4.392;2022-12-10T07:23:20;88.93;;;29.63;;
23517;SDS011;11935;50.878;4.392;2022-12-10T07:25:46;90.68;;;27.25;;
23517;SDS011;11935;50.878;4.392;2022-12-10T07:28:12;90.07;;;31.15;;
23517;SDS011;11935;50.878;4.392;2022-12-10T07:30:38;89.03;;;32.30;;
23517;SDS011;11935;50.878;4.392;2022-12-10T07:33:04;92.65;;;32.55;;
23517;SDS011;11935;50.878;4.392;2022-12-10T07:35:30;80.78;;;31.30;;
23517;SDS011;11935;50.878;4.392;2022-12-10T07:37:57;106.15;;;32.80;;
23517;SDS011;11935;50.878;4.392;2022-12-10T07:40:23;90.20;;;33.17;;
23517;SDS011;11935;50.878;4.392;2022-12-10T07:42:49;95.35;;;32.50;;
23517;SDS011;11935;50.878;4.392;2022-12-10T07:45:15;89.40;;;31.20;;
23517;SDS011;11935;50.878;4.392;2022-12-10T07:47:41;88.65;;;31.85;;
23517;SDS011;11935;50.878;4.392;2022-12-10T07:50:07;105.30;;;28.98;;
23517;SDS011;11935;50.878;4.392;2022-12-10T07:52:33;81.38;;;30.13;;
23517;SDS011;11935;50.878;4.392;2022-12-10T07:55:02;89.13;;;32.40;;
23517;SDS011;11935;50.878;4.392;2022-12-10T07:57:28;92.50;;;31.27;;
23517;SDS011;11935;50.878;4.392;2022-12-10T07:59:55;89.45;;;32.20;;
23517;SDS011;11935;50.878;4.392;2022-12-10T08:02:21;107.22;;;30.48;;
23517;SDS011;11935;50.878;4.392;2022-12-10T08:04:47;91.65;;;28.27;;
23517;SDS011;11935;50.878;4.392;2022-12-10T08:07:13;88.70;;;31.17;;
23517;SDS011;11935;50.878;4.392;2022-12-10T08:09:39;84.28;;;29.98;;
23517;SDS011;11935;50.878;4.392;2022-12-10T08:12:05;89.25;;;31.60;;
23517;SDS011;11935;50.878;4.392;2022-12-10T08:14:31;85.47;;;28.58;;
23517;SDS011;11935;50.878;4.392;2022-12-10T08:16:57;83.50;;;28.33;;
23517;SDS011;11935;50.878;4.392;2022-12-10T08:19:23;82.93;;;28.75;;
23517;SDS011;11935;50.878;4.392;2022-12-10T08:21:49;79.32;;;25.33;;
23517;SDS011;11935;50.878;4.392;2022-12-10T08:24:15;72.85;;;28.33;;
23517;SDS011;11935;50.878;4.392;2022-12-10T08:26:42;88.07;;;29.80;;
23517;SDS011;11935;50.878;4.392;2022-12-10T08:29:08;81.20;;;29.73;;
23517;SDS011;11935;50.878;4.392;2022-12-10T08:31:34;84.65;;;29.17;;
23517;SDS011;11935;50.878;4.392;2022-12-10T08:34:00;77.97;;;28.00;;
23517;SDS011;11935;50.878;4.392;2022-12-10T08:36:26;86.07;;;31.48;;
23517;SDS011;11935;50.878;4.392;2022-12-10T08:38:52;75.45;;;26.63;;
23517;SDS011;11935;50.878;4.392;2022-12-10T08:41:19;82.97;;;30.35;;
23517;SDS011;11935;50.878;4.392;2022-12-10T08:43:45;93.68;;;31.50;;
23517;SDS011;11935;50.878;4.392;2022-12-10T08:46:12;89.93;;;30.67;;
23517;SDS011;11935;50.878;4.392;2022-12-10T08:48:39;91.85;;;30.27;;
23517;SDS011;11935;50.878;4.392;2022-12-10T08:51:05;86.53;;;28.27;;
23517;SDS011;11935;50.878;4.392;2022-12-10T08:53:32;77.65;;;26.80;;
23517;SDS011;11935;50.878;4.392;2022-12-10T08:55:58;76.78;;;24.80;;
23517;SDS011;11935;50.878;4.392;2022-12-10T08:58:24;82.60;;;27.85;;
23517;SDS011;11935;50.878;4.392;2022-12-10T09:00:50;74.63;;;26.50;;
23517;SDS011;11935;50.878;4.392;2022-12-10T09:03:17;72.45;;;26.23;;
23517;SDS011;11935;50.878;4.392;2022-12-10T09:05:43;70.47;;;25.05;;
23517;SDS011;11935;50.878;4.392;2022-12-10T09:08:09;69.68;;;25.70;;
23517;SDS011;11935;50.878;4.392;2022-12-10T09:10:36;75.22;;;26.25;;
23517;SDS011;11935;50.878;4.392;2022-12-10T09:13:02;65.65;;;23.52;;
23517;SDS011;11935;50.878;4.392;2022-12-10T09:15:28;73.93;;;25.38;;
23517;SDS011;11935;50.878;4.392;2022-12-10T09:17:54;68.88;;;24.35;;
23517;SDS011;11935;50.878;4.392;2022-12-10T09:20:20;60.55;;;22.58;;
23517;SDS011;11935;50.878;4.392;2022-12-10T09:22:46;71.40;;;23.70;;
23517;SDS011;11935;50.878;4.392;2022-12-10T09:25:13;69.30;;;27.10;;
23517;SDS011;11935;50.878;4.392;2022-12-10T09:27:42;70.43;;;26.63;;
23517;SDS011;11935;50.878;4.392;2022-12-10T09:30:08;79.80;;;27.95;;
23517;SDS011;11935;50.878;4.392;2022-12-10T09:32:35;77.35;;;24.98;;
23517;SDS011;11935;50.878;4.392;2022-12-10T09:35:01;73.53;;;28.85;;
23517;SDS011;11935;50.878;4.392;2022-12-10T09:37:27;72.03;;;27.50;;
23517;SDS011;11935;50.878;4.392;2022-12-10T09:39:53;78.75;;;29.05;;
23517;SDS011;11935;50.878;4.392;2022-12-10T09:47:24;72.50;;;29.35;;
23517;SDS011;11935;50.878;4.392;2022-12-10T09:49:55;70.78;;;28.85;;
23517;SDS011;11935;50.878;4.392;2022-12-10T09:52:23;73.07;;;29.25;;
23517;SDS011;11935;50.878;4.392;2022-12-10T09:54:54;90.85;;;34.03;;
23517;SDS011;11935;50.878;4.392;2022-12-10T09:59:48;81.38;;;27.02;;
23517;SDS011;11935;50.878;4.392;2022-12-10T10:04:43;77.18;;;29.42;;
23517;SDS011;11935;50.878;4.392;2022-12-10T10:07:11;72.43;;;26.88;;
23517;SDS011;11935;50.878;4.392;2022-12-10T10:09:43;75.88;;;28.02;;
23517;SDS011;11935;50.878;4.392;2022-12-10T10:12:12;68.88;;;27.85;;
23517;SDS011;11935;50.878;4.392;2022-12-10T10:14:39;79.88;;;29.17;;
23517;SDS011;11935;50.878;4.392;2022-12-10T10:17:39;81.63;;;28.98;;
23517;SDS011;11935;50.878;4.392;2022-12-10T10:20:00;69.93;;;25.90;;
23517;SDS011;11935;50.878;4.392;2022-12-10T10:22:27;78.32;;;28.65;;
23517;SDS011;11935;50.878;4.392;2022-12-10T10:24:53;74.47;;;27.88;;
23517;SDS011;11935;50.878;4.392;2022-12-10T10:27:23;73.95;;;26.92;;
23517;SDS011;11935;50.878;4.392;2022-12-10T10:29:52;75.55;;;26.65;;
23517;SDS011;11935;50.878;4.392;2022-12-10T10:32:19;78.88;;;28.95;;
23517;SDS011;11935;50.878;4.392;2022-12-10T10:34:46;80.78;;;29.75;;
23517;SDS011;11935;50.878;4.392;2022-12-10T10:37:39;73.05;;;27.45;;
23517;SDS011;11935;50.878;4.392;2022-12-10T10:40:04;68.60;;;27.90;;
23517;SDS011;11935;50.878;4.392;2022-12-10T10:42:37;73.45;;;27.40;;
23517;SDS011;11935;50.878;4.392;2022-12-10T10:45:05;62.78;;;24.55;;
23517;SDS011;11935;50.878;4.392;2022-12-10T10:47:33;65.07;;;25.58;;
23517;SDS011;11935;50.878;4.392;2022-12-10T10:50:02;66.32;;;24.50;;
23517;SDS011;11935;50.878;4.392;2022-12-10T10:52:30;65.47;;;25.30;;
23517;SDS011;11935;50.878;4.392;2022-12-10T10:55:00;64.05;;;25.42;;
23517;SDS011;11935;50.878;4.392;2022-12-10T10:57:33;63.00;;;25.05;;
23517;SDS011;11935;50.878;4.392;2022-12-10T11:00:01;68.97;;;24.67;;
23517;SDS011;11935;50.878;4.392;2022-12-10T11:02:33;86.88;;;33.55;;
23517;SDS011;11935;50.878;4.392;2022-12-10T11:05:04;90.43;;;34.45;;
23517;SDS011;11935;50.878;4.392;2022-12-10T11:07:35;78.15;;;29.55;;
23517;SDS011;11935;50.878;4.392;2022-12-10T11:10:23;67.53;;;24.92;;
23517;SDS011;11935;50.878;4.392;2022-12-10T11:17:55;56.78;;;21.25;;
23517;SDS011;11935;50.878;4.392;2022-12-10T11:20:31;57.97;;;22.45;;
23517;SDS011;11935;50.878;4.392;2022-12-10T11:22:58;69.25;;;26.42;;
23517;SDS011;11935;50.878;4.392;2022-12-10T11:30:58;62.22;;;23.45;;
23517;SDS011;11935;50.878;4.392;2022-12-10T11:33:42;70.93;;;23.52;;
23517;SDS011;11935;50.878;4.392;2022-12-10T11:38:57;66.25;;;25.17;;
23517;SDS011;11935;50.878;4.392;2022-12-10T11:46:33;77.57;;;25.35;;
23517;SDS011;11935;50.878;4.392;2022-12-10T11:54:16;65.97;;;22.95;;
23517;SDS011;11935;50.878;4.392;2022-12-10T11:57:29;65.22;;;23.15;;
23517;SDS011;11935;50.878;4.392;2022-12-10T11:59:36;66.80;;;24.45;;
23517;SDS011;11935;50.878;4.392;2022-12-10T12:02:21;65.57;;;25.80;;
23517;SDS011;11935;50.878;4.392;2022-12-10T12:13:33;62.22;;;24.42;;
23517;SDS011;11935;50.878;4.392;2022-12-10T12:16:09;65.70;;;21.73;;
23517;SDS011;11935;50.878;4.392;2022-12-10T12:21:13;64.63;;;22.85;;
23517;SDS011;11935;50.878;4.392;2022-12-10T12:23:45;53.25;;;21.33;;
23517;SDS011;11935;50.878;4.392;2022-12-10T12:26:32;67.22;;;24.05;;
23517;SDS011;11935;50.878;4.392;2022-12-10T12:31:34;58.47;;;23.35;;
23517;SDS011;11935;50.878;4.392;2022-12-10T12:34:17;54.75;;;22.63;;
23517;SDS011;11935;50.878;4.392;2022-12-10T12:36:44;60.85;;;23.00;;
23517;SDS011;11935;50.878;4.392;2022-12-10T12:41:42;54.92;;;21.98;;
23517;SDS011;11935;50.878;4.392;2022-12-10T12:46:55;58.63;;;21.80;;
23517;SDS011;11935;50.878;4.392;2022-12-10T12:51:56;55.15;;;20.85;;
23517;SDS011;11935;50.878;4.392;2022-12-10T12:54:24;57.42;;;23.25;;
23517;SDS011;11935;50.878;4.392;2022-12-10T12:56:55;56.28;;;23.15;;
23517;SDS011;11935;50.878;4.392;2022-12-10T13:04:37;44.13;;;18.63;;
23517;SDS011;11935;50.878;4.392;2022-12-10T13:07:49;51.80;;;21.48;;
23517;SDS011;11935;50.878;4.392;2022-12-10T13:09:50;45.15;;;17.52;;
23517;SDS011;11935;50.878;4.392;2022-12-10T13:17:27;61.95;;;21.13;;
23517;SDS011;11935;50.878;4.392;2022-12-10T13:19:53;46.60;;;19.70;;
23517;SDS011;11935;50.878;4.392;2022-12-10T13:22:40;47.83;;;17.55;;
23517;SDS011;11935;50.878;4.392;2022-12-10T13:25:14;57.45;;;19.73;;
23517;SDS011;11935;50.878;4.392;2022-12-10T13:27:41;48.65;;;17.77;;
23517;SDS011;11935;50.878;4.392;2022-12-10T13:38:03;52.17;;;20.95;;
23517;SDS011;11935;50.878;4.392;2022-12-10T13:42:55;47.00;;;18.23;;
23517;SDS011;11935;50.878;4.392;2022-12-10T13:45:40;48.20;;;18.90;;
23517;SDS011;11935;50.878;4.392;2022-12-10T13:53:22;47.80;;;18.55;;
23517;SDS011;11935;50.878;4.392;2022-12-10T13:56:02;50.45;;;18.92;;
23517;SDS011;11935;50.878;4.392;2022-12-10T14:01:03;46.00;;;17.60;;
23517;SDS011;11935;50.878;4.392;2022-12-10T14:06:18;43.13;;;17.85;;
23517;SDS011;11935;50.878;4.392;2022-12-10T14:13:51;48.65;;;19.65;;
23517;SDS011;11935;50.878;4.392;2022-12-10T14:16:18;60.60;;;20.63;;
23517;SDS011;11935;50.878;4.392;2022-12-10T14:18:50;50.20;;;19.17;;
23517;SDS011;11935;50.878;4.392;2022-12-10T14:21:17;44.65;;;17.25;;
23517;SDS011;11935;50.878;4.392;2022-12-10T14:23:45;48.67;;;19.60;;
23517;SDS011;11935;50.878;4.392;2022-12-10T14:28:39;42.25;;;16.58;;
23517;SDS011;11935;50.878;4.392;2022-12-10T14:31:06;47.97;;;18.98;;
23517;SDS011;11935;50.878;4.392;2022-12-10T14:33:35;38.80;;;16.13;;
23517;SDS011;11935;50.878;4.392;2022-12-10T14:36:03;48.95;;;19.00;;
23517;SDS011;11935;50.878;4.392;2022-12-10T14:38:30;44.85;;;17.88;;
23517;SDS011;11935;50.878;4.392;2022-12-10T14:41:00;45.50;;;17.88;;
23517;SDS011;11935;50.878;4.392;2022-12-10T14:45:57;45.85;;;17.20;;
23517;SDS011;11935;50.878;4.392;2022-12-10T14:48:24;41.90;;;18.58;;
23517;SDS011;11935;50.878;4.392;2022-12-10T14:50:50;44.75;;;18.10;;
23517;SDS011;11935;50.878;4.392;2022-12-10T14:53:23;54.08;;;19.80;;
23517;SDS011;11935;50.878;4.392;2022-12-10T14:55:51;48.15;;;18.10;;
23517;SDS011;11935;50.878;4.392;2022-12-10T15:00:51;48.60;;;18.00;;
23517;SDS011;11935;50.878;4.392;2022-12-10T15:03:27;48.75;;;18.00;;
23517;SDS011;11935;50.878;4.392;2022-12-10T15:05:54;51.58;;;19.65;;
23517;SDS011;11935;50.878;4.392;2022-12-10T15:08:21;43.50;;;18.05;;
23517;SDS011;11935;50.878;4.392;2022-12-10T15:10:50;53.85;;;20.20;;
23517;SDS011;11935;50.878;4.392;2022-12-10T15:13:18;47.15;;;17.40;;
23517;SDS011;11935;50.878;4.392;2022-12-10T15:15:47;42.28;;;16.13;;
23517;SDS011;11935;50.878;4.392;2022-12-10T15:18:47;48.78;;;19.08;;
23517;SDS011;11935;50.878;4.392;2022-12-10T15:21:15;51.45;;;19.23;;
23517;SDS011;11935;50.878;4.392;2022-12-10T15:23:42;56.80;;;20.77;;
23517;SDS011;11935;50.878;4.392;2022-12-10T15:26:17;51.85;;;20.25;;
23517;SDS011;11935;50.878;4.392;2022-12-10T15:28:44;51.28;;;20.15;;
23517;SDS011;11935;50.878;4.392;2022-12-10T15:33:43;64.57;;;23.45;;
23517;SDS011;11935;50.878;4.392;2022-12-10T15:36:22;62.67;;;24.30;;
23517;SDS011;11935;50.878;4.392;2022-12-10T15:38:49;50.70;;;20.05;;
23517;SDS011;11935;50.878;4.392;2022-12-10T15:41:22;55.83;;;19.83;;
23517;SDS011;11935;50.878;4.392;2022-12-10T15:43:57;49.00;;;19.30;;
23517;SDS011;11935;50.878;4.392;2022-12-10T15:46:23;50.83;;;18.90;;
23517;SDS011;11935;50.878;4.392;2022-12-10T15:48:49;44.17;;;19.13;;
23517;SDS011;11935;50.878;4.392;2022-12-10T15:51:15;52.22;;;19.35;;
23517;SDS011;11935;50.878;4.392;2022-12-10T15:53:42;44.10;;;17.80;;
23517;SDS011;11935;50.878;4.392;2022-12-10T15:56:08;44.58;;;17.38;;
23517;SDS011;11935;50.878;4.392;2022-12-10T15:58:34;50.45;;;19.25;;
23517;SDS011;11935;50.878;4.392;2022-12-10T16:01:00;49.15;;;20.50;;
23517;SDS011;11935;50.878;4.392;2022-12-10T16:03:27;42.80;;;17.73;;
23517;SDS011;11935;50.878;4.392;2022-12-10T16:05:53;43.15;;;18.52;;
23517;SDS011;11935;50.878;4.392;2022-12-10T16:10:46;46.33;;;18.80;;
23517;SDS011;11935;50.878;4.392;2022-12-10T16:13:26;43.15;;;18.02;;
23517;SDS011;11935;50.878;4.392;2022-12-10T16:15:57;43.20;;;17.90;;
23517;SDS011;11935;50.878;4.392;2022-12-10T16:18:25;41.40;;;15.90;;
23517;SDS011;11935;50.878;4.392;2022-12-10T16:20:51;52.33;;;19.45;;
23517;SDS011;11935;50.878;4.392;2022-12-10T16:23:17;48.33;;;18.35;;
23517;SDS011;11935;50.878;4.392;2022-12-10T16:25:44;45.47;;;19.92;;
23517;SDS011;11935;50.878;4.392;2022-12-10T16:28:12;46.10;;;18.15;;
23517;SDS011;11935;50.878;4.392;2022-12-10T16:30:42;52.00;;;19.52;;